createdAt,value
2019-03-18T00:02:02.076Z,4.5
2019-03-18T00:07:24.652Z,4.5
2019-03-18T00:12:47.301Z,4.7
2019-03-18T00:18:09.878Z,4.8
2019-03-18T00:23:32.589Z,4
2019-03-18T00:28:55.219Z,3.9
2019-03-18T00:34:18.382Z,4.2
2019-03-18T00:39:41.120Z,4.2
2019-03-18T00:45:14.012Z,4
2019-03-18T00:50:28.385Z,4.4
2019-03-18T00:55:52.020Z,4
2019-03-18T01:01:14.646Z,4.5
2019-03-18T01:06:37.262Z,5.2
2019-03-18T01:11:59.873Z,4.8
2019-03-18T01:17:22.523Z,5.4
2019-03-18T01:22:45.140Z,6.1
2019-03-18T01:28:07.809Z,5.5
2019-03-18T01:33:30.416Z,6.1
2019-03-18T01:38:53.046Z,5.9
2019-03-18T01:44:16.080Z,6.3
2019-03-18T01:49:38.698Z,5.9
2019-03-18T01:55:01.309Z,6.8
2019-03-18T02:00:23.926Z,7.3
2019-03-18T02:05:46.566Z,6.6
2019-03-18T02:11:09.209Z,6.4
2019-03-18T02:16:31.824Z,7.1
2019-03-18T02:21:54.468Z,6.7
2019-03-18T02:27:17.129Z,6.3
2019-03-18T02:32:40.347Z,7.2
2019-03-18T02:38:02.972Z,8.4
2019-03-18T02:43:25.605Z,8.8
2019-03-18T02:48:48.219Z,9.1
2019-03-18T02:54:10.865Z,8.8
2019-03-18T02:59:33.479Z,8.7
2019-03-18T03:04:56.140Z,8.8
2019-03-18T03:10:18.793Z,9.1
2019-03-18T03:15:41.387Z,8.9
2019-03-18T03:21:04.022Z,9.4
2019-03-18T03:26:27.222Z,9.1
2019-03-18T03:31:50.140Z,9.8
2019-03-18T03:37:12.772Z,10.1
2019-03-18T03:42:35.414Z,10.1
2019-03-18T03:47:58.047Z,11.1
2019-03-18T03:53:20.711Z,12.5
2019-03-18T03:58:43.403Z,13
2019-03-18T04:04:06.947Z,13.9
2019-03-18T04:09:29.881Z,13
2019-03-18T04:14:52.512Z,14.1
2019-03-18T04:20:15.137Z,15.4
2019-03-18T04:25:37.763Z,14.2
2019-03-18T04:31:01.479Z,14.9
2019-03-18T04:36:24.208Z,14.8
2019-03-18T04:41:47.907Z,14.8
2019-03-18T04:47:14.419Z,13.9
2019-03-18T04:52:34.333Z,13.6
2019-03-18T04:57:57.049Z,12.8
2019-03-18T05:03:19.722Z,13.8
2019-03-18T05:08:42.339Z,13.1
2019-03-18T05:14:05.026Z,13.1
2019-03-18T05:19:27.692Z,13.1
2019-03-18T05:24:50.316Z,12.4
2019-03-18T05:30:12.975Z,12.6
2019-03-18T05:35:35.659Z,12.7
2019-03-18T05:40:58.392Z,13.5
2019-03-18T05:46:21.703Z,13
2019-03-18T05:51:44.379Z,12.6
2019-03-18T05:57:07.052Z,11.8
2019-03-18T06:02:29.763Z,12
2019-03-18T06:07:52.454Z,12.1
2019-03-18T06:13:16.078Z,11
2019-03-18T06:18:38.756Z,10.2
2019-03-18T06:24:01.409Z,9.8
2019-03-18T06:29:24.113Z,9.8
2019-03-18T06:34:46.812Z,9.1
2019-03-18T06:40:12.755Z,8.6
2019-03-18T06:45:35.432Z,8.4
2019-03-18T06:50:58.179Z,7.8
2019-03-18T06:56:20.826Z,7.9
2019-03-18T07:01:43.594Z,6.8
2019-03-18T07:07:06.300Z,7
2019-03-18T07:12:29.744Z,6.5
2019-03-18T07:17:52.472Z,5.3
2019-03-18T07:23:15.732Z,4.7
2019-03-18T07:28:38.458Z,4.8
2019-03-18T07:34:01.072Z,5.1
2019-03-18T07:39:25.559Z,4.7
2019-03-18T07:44:48.230Z,4.3
2019-03-18T07:50:10.864Z,4.4
2019-03-18T07:55:34.331Z,4.3
2019-03-18T08:00:57.209Z,4
2019-03-18T08:06:20.484Z,4.5
2019-03-18T08:11:43.146Z,3.5
2019-03-18T08:17:05.819Z,4.1
2019-03-18T08:22:28.528Z,3.7
2019-03-18T08:27:51.192Z,3.8
2019-03-18T08:33:13.915Z,3.7
2019-03-18T08:38:36.542Z,3.3
2019-03-18T08:43:59.272Z,3.2
2019-03-18T08:49:22.033Z,3
2019-03-18T08:54:45.120Z,3.5
2019-03-18T09:00:07.830Z,3.2
2019-03-18T09:05:30.599Z,3.1
2019-03-18T09:10:53.322Z,2.9
2019-03-18T09:16:15.967Z,2.7
2019-03-18T09:21:38.640Z,3.1
2019-03-18T09:27:02.490Z,2.9
2019-03-18T09:32:24.964Z,2.5
2019-03-18T09:37:48.594Z,3.3
2019-03-18T09:43:11.272Z,3.1
2019-03-18T09:48:34.579Z,3.5
2019-03-18T09:53:57.270Z,3
2019-03-18T09:59:20.005Z,3
2019-03-18T10:04:42.613Z,3.2
2019-03-18T10:10:05.291Z,2.5
2019-03-18T10:15:27.934Z,2.3
2019-03-18T10:20:50.624Z,2.5
2019-03-18T10:26:13.566Z,2.7
2019-03-18T10:31:36.220Z,2.4
2019-03-18T10:36:58.862Z,2.5
2019-03-18T10:42:21.507Z,2.6
2019-03-18T10:47:44.143Z,2.3
2019-03-18T10:53:06.823Z,2.6
2019-03-18T10:58:28.528Z,1.4
2019-03-18T11:03:51.193Z,1.4
2019-03-18T11:09:13.906Z,1.3
2019-03-18T11:14:36.575Z,1.7
2019-03-18T11:19:59.263Z,1.7
2019-03-18T11:25:21.888Z,1.6
2019-03-18T11:30:44.718Z,2
2019-03-18T11:36:07.369Z,2
2019-03-18T11:41:30.138Z,2
2019-03-18T11:46:52.807Z,2.2
2019-03-18T11:52:16.592Z,2.5
2019-03-18T11:57:39.242Z,2.6
2019-03-18T12:03:01.948Z,2.5
2019-03-18T12:08:24.750Z,2.4
2019-03-18T12:13:48.524Z,2.9
2019-03-18T12:19:11.140Z,2.2
2019-03-18T12:24:33.841Z,3
2019-03-18T12:29:56.618Z,2.5
2019-03-18T12:35:19.449Z,1.9
2019-03-18T12:40:43.266Z,2.1
2019-03-18T12:46:05.886Z,1.4
2019-03-18T12:51:30.084Z,1.6
2019-03-18T12:56:52.878Z,1.5
2019-03-18T13:02:15.688Z,2
2019-03-18T13:07:38.484Z,1.9
2019-03-18T13:13:01.302Z,1.9
2019-03-18T13:18:23.979Z,2.1
2019-03-18T13:23:46.849Z,2.1
2019-03-18T13:29:09.494Z,2.6
2019-03-18T13:34:32.261Z,2.2
2019-03-18T13:39:54.952Z,3.1
2019-03-18T13:45:17.613Z,2.1
2019-03-18T13:50:40.361Z,2.1
2019-03-18T13:56:03.082Z,2.1
2019-03-18T14:01:25.746Z,2.4
2019-03-18T14:06:48.569Z,2.1
2019-03-18T14:12:11.248Z,2.1
2019-03-18T14:17:33.885Z,1.7
2019-03-18T14:22:56.557Z,2
2019-03-18T14:28:20.087Z,1.4
2019-03-18T14:33:43.570Z,2
2019-03-18T14:39:06.233Z,2.4
2019-03-18T14:44:28.916Z,1.9
2019-03-18T14:49:51.642Z,2
2019-03-18T14:55:14.317Z,1.8
2019-03-18T15:00:37.139Z,2
2019-03-18T15:05:59.828Z,1.5
2019-03-18T15:11:22.555Z,1.4
2019-03-18T15:16:45.939Z,1.9
2019-03-18T15:22:08.661Z,1.9
2019-03-18T15:27:31.288Z,1.8
2019-03-18T15:32:53.958Z,2.7
2019-03-18T15:38:17.186Z,2.6
2019-03-18T15:43:40.826Z,1.9
2019-03-18T15:49:03.493Z,1.8
2019-03-18T15:54:26.206Z,2.1
2019-03-18T15:59:48.932Z,2.1
2019-03-18T16:05:11.482Z,1.6
2019-03-18T16:10:34.210Z,1.5
2019-03-18T16:15:56.838Z,1.4
2019-03-18T16:21:19.500Z,1.6
2019-03-18T16:26:43.193Z,1.4
2019-03-18T16:32:11.090Z,1.7
2019-03-18T16:37:29.467Z,2.1
2019-03-18T16:42:52.067Z,1.9
2019-03-18T16:48:14.821Z,1.9
2019-03-18T16:53:37.379Z,1.8
2019-03-18T16:59:00.920Z,2.2
2019-03-18T17:04:23.589Z,2.1
2019-03-18T17:09:46.415Z,2
2019-03-18T17:15:09.221Z,2
2019-03-18T17:20:31.895Z,1.8
2019-03-18T17:25:54.706Z,2.2
2019-03-18T17:31:17.583Z,1.6
2019-03-18T17:36:40.241Z,1.7
2019-03-18T17:42:03.020Z,1.9
2019-03-18T17:47:25.724Z,2.4
2019-03-18T17:53:00.773Z,2.7
2019-03-18T17:58:12.502Z,2.2
2019-03-18T18:03:35.542Z,2.2
2019-03-18T18:08:58.141Z,2.1
2019-03-18T18:14:20.876Z,2.1
2019-03-18T18:19:43.547Z,2
2019-03-18T18:25:06.247Z,2.5
2019-03-18T18:30:28.983Z,2.7
2019-03-18T18:35:51.806Z,2.7
2019-03-18T18:41:14.522Z,3
2019-03-18T18:46:37.919Z,2.5
2019-03-18T18:52:00.565Z,2.5
2019-03-18T18:57:23.203Z,2.3
2019-03-18T19:02:45.827Z,2.9
2019-03-18T19:08:08.475Z,3
2019-03-18T19:13:31.301Z,3.2
2019-03-18T19:18:53.941Z,3.4
2019-03-18T19:24:18.286Z,2.7
2019-03-18T19:29:40.995Z,3
2019-03-18T19:35:03.751Z,3.2
2019-03-18T19:40:26.582Z,2.9
2019-03-18T19:45:49.391Z,3.3
2019-03-18T19:51:12.176Z,3.8
2019-03-18T19:56:35.824Z,3.3
2019-03-18T20:01:58.595Z,3.5
2019-03-18T20:07:22.311Z,2.9
2019-03-18T20:12:45.053Z,3
2019-03-18T20:18:07.926Z,3.2
2019-03-18T20:23:31.075Z,3.3
2019-03-18T20:28:53.751Z,3.1
2019-03-18T20:34:16.415Z,2.9
2019-03-18T20:39:39.164Z,3.1
2019-03-18T20:45:01.918Z,2.9
2019-03-18T20:50:24.586Z,3.3
2019-03-18T20:55:47.832Z,3.2
2019-03-18T21:01:10.728Z,3.2
2019-03-18T21:06:33.542Z,3.5
2019-03-18T21:11:56.294Z,2.8
2019-03-18T21:17:19.050Z,3.3
2019-03-18T21:22:41.660Z,3.7
2019-03-18T21:28:04.364Z,3.7
2019-03-18T21:33:26.980Z,4.1
2019-03-18T21:38:49.734Z,4.2
2019-03-18T21:44:12.399Z,3.6
2019-03-18T21:49:35.025Z,4
2019-03-18T21:54:57.687Z,4.3
2019-03-18T22:00:20.324Z,4.2
2019-03-18T22:05:43.045Z,3.3
2019-03-18T22:11:05.777Z,3.3
2019-03-18T22:16:28.393Z,3.7
2019-03-18T22:21:51.222Z,4.1
2019-03-18T22:27:14.106Z,4.5
2019-03-18T22:32:36.740Z,4.3
2019-03-18T22:37:59.506Z,4.9
2019-03-18T22:43:22.188Z,4
2019-03-18T22:48:44.958Z,4.8
2019-03-18T22:54:07.712Z,3.7
2019-03-18T22:59:30.531Z,4.2
2019-03-18T23:04:53.314Z,3.7
2019-03-18T23:10:16.000Z,4.5
2019-03-18T23:15:38.848Z,4.5
2019-03-18T23:21:01.525Z,4
2019-03-18T23:26:24.267Z,4.9
2019-03-18T23:31:47.051Z,4.5
2019-03-18T23:37:09.787Z,4.9
2019-03-18T23:42:32.443Z,4
2019-03-18T23:47:55.139Z,4
2019-03-18T23:53:19.017Z,4.7
2019-03-18T23:58:41.771Z,4.8
